首页
METAR-TAF:

METAR-TAF

机场 :

蘇克雷元帥國際機場

基多, 厄瓜多尔

纬度: 0-06-48S, 经度: 78-21-31W, 海拔: 2400米

当前天气观测

该预报发布于59分钟前的01:00 UTC
风速6节,风向北转东北
温度 15°C
湿度 77%
气压 1025 hPa
能见度10公里或以上
多云层高于3000英尺

METAR: SEQM 220100Z 02006KT 9999 BKN030 15/11 Q1025 NOSIG RMK A3028

时间: 20:59 (01:59 UTC)

预报

该预报发布于3小时和29分钟前的22:30 UTC
预报有效从22日的 00点(UTC)到 22日的 24点(UTC)
风速4节,风向北转东北
能见度10公里或以上
散云层高于2600英尺
从 22日的 0600点(UTC)
风速节,风向
能見度: 6000
散云层高于500英尺
多云层高于2000英尺
碎片雾
从 22日的 1200点(UTC)
风速3节,风向多变
能见度10公里或以上
散云层高于3000英尺
散云层高于30000英尺
成为
从 22日的 18点(UTC)到 22日的 19点(UTC)
风速14节,风向
短暂存在
从 22日的 21点(UTC)到 22日的 23点(UTC)
多云层高于3000英尺
阵雨

TAF: SEQM 212230Z 2200/2224 03004KT 9999 SCT026 FM220600 00000KT 6000 BCFG SCT005 BKN020 FM221200 VRB03KT 9999 SCT030 SCT300 BECMG 2218/2219 36014KT TEMPO 2221/2223 SHRA BKN030 TX25/2219Z TN11/2211Z

超过4000个机场的气象观测和天气预报(METAR&TAF报告)。

可查询的气象台以黄色和红色小点在地图上表示。

将鼠标移到小点上方,可查看气象台名称。

然后点击查看天气观测和预报。

如需切换地图:点击带黑十字的绿色按钮放大地图;点击带横线的绿色按钮缩小地图;或者点击绿色箭头查看邻近地区的地图。


METAR-TAF: